createdAt,value
2023-05-07T00:03:02.497Z,15.93
2023-05-07T00:06:06.928Z,15.81
2023-05-07T00:09:09.799Z,15.73
2023-05-07T00:12:12.312Z,15.61
2023-05-07T00:15:14.690Z,15.59
2023-05-07T00:18:17.746Z,15.60
2023-05-07T00:21:22.584Z,15.61
2023-05-07T00:24:24.929Z,15.53
2023-05-07T00:27:27.433Z,15.47
2023-05-07T00:30:30.037Z,15.39
2023-05-07T00:33:32.434Z,15.43
2023-05-07T00:36:36.193Z,15.43
2023-05-07T00:39:38.649Z,15.41
2023-05-07T00:42:41.035Z,15.31
2023-05-07T00:45:43.567Z,15.28
2023-05-07T00:48:46.175Z,15.19
2023-05-07T00:51:50.071Z,15.20
2023-05-07T00:54:52.509Z,15.22
2023-05-07T00:57:54.979Z,15.20
2023-05-07T01:00:57.504Z,15.10
2023-05-07T01:03:59.904Z,15.03
2023-05-07T01:07:04.191Z,15.01
2023-05-07T01:10:07.236Z,15.00
2023-05-07T01:13:09.864Z,14.88
2023-05-07T01:16:12.235Z,14.91
2023-05-07T01:19:17.117Z,14.93
2023-05-07T01:22:25.900Z,14.95
2023-05-07T01:25:29.761Z,14.90
2023-05-07T01:28:32.098Z,14.86
2023-05-07T01:31:34.614Z,14.83
2023-05-07T01:34:37.216Z,14.76
2023-05-07T01:37:39.631Z,14.68
2023-05-07T01:40:43.634Z,14.69
2023-05-07T01:43:46.584Z,14.69
2023-05-07T01:46:49.014Z,14.64
2023-05-07T01:49:51.742Z,14.67
2023-05-07T01:52:54.676Z,14.65
2023-05-07T01:55:58.341Z,14.63
2023-05-07T01:59:00.674Z,14.55
2023-05-07T02:02:04.293Z,14.59
2023-05-07T02:05:07.209Z,14.54
2023-05-07T02:08:09.560Z,14.57
2023-05-07T02:11:13.218Z,14.59
2023-05-07T02:14:16.367Z,14.56
2023-05-07T02:17:18.997Z,14.56
2023-05-07T02:20:21.407Z,14.58
2023-05-07T02:23:23.780Z,14.58
2023-05-07T02:26:27.809Z,14.49
2023-05-07T02:29:30.160Z,14.53
2023-05-07T02:32:32.636Z,14.61
2023-05-07T02:35:35.058Z,14.59
2023-05-07T02:38:37.533Z,14.46
2023-05-07T02:41:41.280Z,14.38
2023-05-07T02:44:43.731Z,14.21
2023-05-07T02:47:46.389Z,14.09
2023-05-07T02:50:48.793Z,13.97
2023-05-07T02:53:51.554Z,13.94
2023-05-07T02:56:55.294Z,13.90
2023-05-07T02:59:57.788Z,13.86
2023-05-07T03:03:00.250Z,13.86
2023-05-07T03:06:02.760Z,13.81
2023-05-07T03:09:05.271Z,13.78
2023-05-07T03:12:09.174Z,13.64
2023-05-07T03:15:12.376Z,13.54
2023-05-07T03:18:14.962Z,13.48
2023-05-07T03:21:17.395Z,13.43
2023-05-07T03:24:19.820Z,13.42
2023-05-07T03:27:23.657Z,13.36
2023-05-07T03:30:26.146Z,13.41
2023-05-07T03:33:29.413Z,13.44
2023-05-07T03:36:32.010Z,13.42
2023-05-07T03:39:34.418Z,13.41
2023-05-07T03:42:38.212Z,13.44
2023-05-07T03:45:40.628Z,13.51
2023-05-07T03:48:43.071Z,13.51
2023-05-07T03:51:45.550Z,13.45
2023-05-07T03:54:47.936Z,13.44
2023-05-07T03:57:51.730Z,13.37
2023-05-07T04:00:54.130Z,13.36
2023-05-07T04:03:56.584Z,13.41
2023-05-07T04:07:00.290Z,13.34
2023-05-07T04:10:03.354Z,13.28
2023-05-07T04:13:07.077Z,13.28
2023-05-07T04:16:09.526Z,13.36
2023-05-07T04:19:13.060Z,13.48
2023-05-07T04:22:15.522Z,13.52
2023-05-07T04:25:17.957Z,13.62
2023-05-07T04:28:21.704Z,13.70
2023-05-07T04:31:24.091Z,13.70
2023-05-07T04:34:26.613Z,13.73
2023-05-07T04:37:28.980Z,13.82
2023-05-07T04:40:31.485Z,13.92
2023-05-07T04:43:35.536Z,14.05
2023-05-07T04:46:38.081Z,14.05
2023-05-07T04:49:40.629Z,14.07
2023-05-07T04:52:43.292Z,14.13
2023-05-07T04:55:45.973Z,14.15
2023-05-07T04:58:49.876Z,14.19
2023-05-07T05:01:52.534Z,14.25
2023-05-07T05:04:55.097Z,14.27
2023-05-07T05:07:57.526Z,14.32
2023-05-07T05:11:00.203Z,14.39
2023-05-07T05:14:03.928Z,14.42
2023-05-07T05:17:06.322Z,14.58
2023-05-07T05:20:12.206Z,14.77
2023-05-07T05:23:15.130Z,14.94
2023-05-07T05:26:17.914Z,15.14
2023-05-07T05:29:21.753Z,15.20
2023-05-07T05:32:27.850Z,15.28
2023-05-07T05:35:31.473Z,15.51
2023-05-07T05:38:33.816Z,15.85
2023-05-07T05:41:36.204Z,16.21
2023-05-07T05:44:40.121Z,16.48
2023-05-07T05:47:42.852Z,16.70
2023-05-07T05:50:45.450Z,16.77
2023-05-07T05:53:48.191Z,16.78
2023-05-07T05:56:50.908Z,16.87
2023-05-07T05:59:54.690Z,17.05
2023-05-07T06:02:57.783Z,17.26
2023-05-07T06:06:00.970Z,17.49
2023-05-07T06:09:03.363Z,17.83
2023-05-07T06:12:05.896Z,17.91
2023-05-07T06:15:10.038Z,18.11
2023-05-07T06:18:12.498Z,18.23
2023-05-07T06:21:15.387Z,18.22
2023-05-07T06:24:17.923Z,18.14
2023-05-07T06:27:20.264Z,17.98
2023-05-07T06:30:24.244Z,17.73
2023-05-07T06:33:26.685Z,17.43
2023-05-07T06:36:29.126Z,17.28
2023-05-07T06:39:31.830Z,17.33
2023-05-07T06:42:34.338Z,17.47
2023-05-07T06:45:38.327Z,17.47
2023-05-07T06:48:40.859Z,17.59
2023-05-07T06:51:43.345Z,17.59
2023-05-07T06:54:45.681Z,17.77
2023-05-07T06:57:48.066Z,18.17
2023-05-07T07:00:51.801Z,18.45
2023-05-07T07:03:54.221Z,18.89
2023-05-07T07:06:57.763Z,19.21
2023-05-07T07:10:00.591Z,19.49
2023-05-07T07:13:03.078Z,19.83
2023-05-07T07:16:07.562Z,20.14
2023-05-07T07:19:10.147Z,20.53
2023-05-07T07:22:12.668Z,20.86
2023-05-07T07:25:15.092Z,21.30
2023-05-07T07:28:17.530Z,21.76
2023-05-07T07:31:21.795Z,22.33
2023-05-07T07:34:24.291Z,22.71
2023-05-07T07:37:26.755Z,23.50
2023-05-07T07:40:29.161Z,23.95
2023-05-07T07:43:31.862Z,23.88
2023-05-07T07:46:35.869Z,24.72
2023-05-07T07:49:38.408Z,24.92
2023-05-07T07:52:40.785Z,25.28
2023-05-07T07:55:43.326Z,25.57
2023-05-07T07:58:46.271Z,25.81
2023-05-07T08:01:53.382Z,25.11
2023-05-07T08:04:57.519Z,24.83
2023-05-07T08:08:00.196Z,24.80
2023-05-07T08:11:02.674Z,25.24
2023-05-07T08:14:05.066Z,25.63
2023-05-07T08:17:10.817Z,25.30
2023-05-07T08:20:13.686Z,25.37
2023-05-07T08:23:16.455Z,25.74
2023-05-07T08:26:19.004Z,26.12
2023-05-07T08:29:21.683Z,25.72
2023-05-07T08:32:25.510Z,25.67
2023-05-07T08:35:29.002Z,25.56
2023-05-07T08:38:31.649Z,25.44
2023-05-07T08:41:34.332Z,25.16
2023-05-07T08:44:36.968Z,25.14
2023-05-07T08:47:43.912Z,25.12
2023-05-07T08:50:46.734Z,25.35
2023-05-07T08:53:50.862Z,25.55
2023-05-07T08:56:53.397Z,25.25
2023-05-07T08:59:55.834Z,25.84
2023-05-07T09:02:59.647Z,25.99
2023-05-07T09:06:02.388Z,26.17
2023-05-07T09:09:06.443Z,25.90
2023-05-07T09:12:09.613Z,25.08
2023-05-07T09:15:13.028Z,25.12
2023-05-07T09:18:17.162Z,25.72
2023-05-07T09:21:20.145Z,25.68
2023-05-07T09:24:22.739Z,25.59
2023-05-07T09:27:26.097Z,26.11
2023-05-07T09:30:29.724Z,26.54
2023-05-07T09:33:33.794Z,26.74
2023-05-07T09:36:36.572Z,26.74
2023-05-07T09:39:42.610Z,26.23
2023-05-07T09:42:45.097Z,26.14
2023-05-07T09:45:47.961Z,26.10
2023-05-07T09:48:52.024Z,26.26
2023-05-07T09:51:54.705Z,26.38
2023-05-07T09:54:57.216Z,26.64
2023-05-07T09:57:59.796Z,26.99
2023-05-07T10:01:02.976Z,27.33
2023-05-07T10:04:09.167Z,27.34
2023-05-07T10:07:11.878Z,26.85
2023-05-07T10:10:14.505Z,26.69
2023-05-07T10:13:17.307Z,26.74
2023-05-07T10:16:19.763Z,27.64
2023-05-07T10:19:23.933Z,27.45
2023-05-07T10:22:27.525Z,27.81
2023-05-07T10:25:30.808Z,28.76
2023-05-07T10:28:35.239Z,29.22
2023-05-07T10:31:41.972Z,29.65
2023-05-07T10:34:46.659Z,30.14
2023-05-07T10:37:49.126Z,30.70
2023-05-07T10:40:52.275Z,30.92
2023-05-07T10:43:54.750Z,31.77
2023-05-07T10:47:08.759Z,31.94
2023-05-07T10:50:25.434Z,32.18
2023-05-07T10:53:29.364Z,32.11
2023-05-07T10:56:32.155Z,31.20
2023-05-07T10:59:42.788Z,30.81
2023-05-07T11:03:03.991Z,31.56
2023-05-07T11:06:14.392Z,32.26
2023-05-07T11:09:17.457Z,32.51
2023-05-07T11:12:20.359Z,31.63
2023-05-07T11:15:35.800Z,32.92
2023-05-07T11:18:51.210Z,33.77
2023-05-07T11:21:55.264Z,33.44
2023-05-07T11:24:57.988Z,33.19
2023-05-07T11:28:06.255Z,32.36
2023-05-07T11:31:09.407Z,32.26
2023-05-07T11:34:12.135Z,31.94
2023-05-07T11:37:15.872Z,31.63
2023-05-07T11:40:18.346Z,31.07
2023-05-07T11:43:20.766Z,30.29
2023-05-07T11:46:23.443Z,30.03
2023-05-07T11:49:26.874Z,28.96
2023-05-07T11:52:30.680Z,27.95
2023-05-07T11:55:33.178Z,27.64
2023-05-07T11:58:35.535Z,27.18
2023-05-07T12:01:38.601Z,26.78
2023-05-07T12:04:41.197Z,26.49
2023-05-07T12:07:45.349Z,26.27
2023-05-07T12:10:48.967Z,25.99
2023-05-07T12:13:51.633Z,25.86
2023-05-07T12:16:54.462Z,25.61
2023-05-07T12:19:57.028Z,25.39
2023-05-07T12:23:00.869Z,25.17
2023-05-07T12:26:05.720Z,23.44
2023-05-07T12:29:09.625Z,20.80
2023-05-07T12:32:15.624Z,19.95
2023-05-07T12:35:18.261Z,19.52
2023-05-07T12:38:22.495Z,18.88
2023-05-07T12:41:28.113Z,18.20
2023-05-07T12:44:31.152Z,17.88
2023-05-07T12:47:34.224Z,18.21
2023-05-07T12:50:36.720Z,17.83
2023-05-07T12:53:43.429Z,17.23
2023-05-07T12:56:45.886Z,16.89
2023-05-07T12:59:48.416Z,16.71
2023-05-07T13:02:50.901Z,16.67
2023-05-07T13:05:53.624Z,16.78
2023-05-07T13:08:57.653Z,16.63
2023-05-07T13:12:02.390Z,16.30
2023-05-07T13:15:05.459Z,16.36
2023-05-07T13:18:08.057Z,15.74
2023-05-07T13:21:11.285Z,15.38
2023-05-07T13:24:15.171Z,15.59
2023-05-07T13:27:18.238Z,15.61
2023-05-07T13:30:20.902Z,15.77
2023-05-07T13:33:23.821Z,16.01
2023-05-07T13:36:26.288Z,16.14
2023-05-07T13:39:30.381Z,15.99
2023-05-07T13:42:32.850Z,15.91
2023-05-07T13:45:35.435Z,15.95
2023-05-07T13:48:37.844Z,16.08
2023-05-07T13:51:40.451Z,16.39
2023-05-07T13:54:44.422Z,16.64
2023-05-07T13:57:46.919Z,16.41
2023-05-07T14:00:49.296Z,16.18
2023-05-07T14:03:51.824Z,16.33
2023-05-07T14:06:54.315Z,15.92
2023-05-07T14:09:58.509Z,16.20
2023-05-07T14:13:01.035Z,16.31
2023-05-07T14:16:03.734Z,16.16
2023-05-07T14:19:06.395Z,16.32
2023-05-07T14:22:09.108Z,16.51
2023-05-07T14:25:13.922Z,16.16
2023-05-07T14:28:16.588Z,16.05
2023-05-07T14:31:19.205Z,16.21
2023-05-07T14:34:22.118Z,16.20
2023-05-07T14:37:25.368Z,16.21
2023-05-07T14:40:29.397Z,16.35
2023-05-07T14:43:31.941Z,16.44
2023-05-07T14:46:34.623Z,16.66
2023-05-07T14:49:37.392Z,17.01
2023-05-07T14:52:40.203Z,17.04
2023-05-07T14:55:44.015Z,17.19
2023-05-07T14:58:47.926Z,17.37
2023-05-07T15:01:50.861Z,17.50
2023-05-07T15:04:53.463Z,17.64
2023-05-07T15:09:20.082Z,17.80
2023-05-07T15:12:23.111Z,18.06
2023-05-07T15:15:26.304Z,18.15
2023-05-07T15:18:29.513Z,18.36
2023-05-07T15:21:35.316Z,18.49
2023-05-07T15:24:39.466Z,18.63
2023-05-07T15:27:42.136Z,18.63
2023-05-07T15:30:45.723Z,18.20
2023-05-07T15:33:48.661Z,18.59
2023-05-07T15:36:51.485Z,18.92
2023-05-07T15:39:55.797Z,19.31
2023-05-07T15:42:58.335Z,19.63
2023-05-07T15:46:01.989Z,19.75
2023-05-07T15:49:05.249Z,19.85
2023-05-07T15:52:07.829Z,19.79
2023-05-07T15:55:12.071Z,19.76
2023-05-07T15:58:15.389Z,19.64
2023-05-07T16:01:18.060Z,19.64
2023-05-07T16:04:21.091Z,19.58
2023-05-07T16:07:24.860Z,19.58
2023-05-07T16:10:28.818Z,19.56
2023-05-07T16:13:31.472Z,19.26
2023-05-07T16:16:34.816Z,18.96
2023-05-07T16:19:37.568Z,19.01
2023-05-07T16:22:40.037Z,19.13
2023-05-07T16:25:44.048Z,19.17
2023-05-07T16:28:46.793Z,19.28
2023-05-07T16:31:49.659Z,19.43
2023-05-07T16:34:52.376Z,19.43
2023-05-07T16:37:55.003Z,19.50
2023-05-07T16:40:58.985Z,19.32
2023-05-07T16:44:02.407Z,19.30
2023-05-07T16:47:05.159Z,19.41
2023-05-07T16:50:08.749Z,19.40
2023-05-07T16:53:12.516Z,19.51
2023-05-07T16:56:16.521Z,19.62
2023-05-07T16:59:19.339Z,19.87
2023-05-07T17:02:22.229Z,20.20
2023-05-07T17:05:25.093Z,20.50
2023-05-07T17:08:27.706Z,20.70
2023-05-07T17:11:33.940Z,20.73
2023-05-07T17:14:36.750Z,20.70
2023-05-07T17:17:39.355Z,20.64
2023-05-07T17:20:42.200Z,20.49
2023-05-07T17:23:44.917Z,20.31
2023-05-07T17:26:49.866Z,20.04
2023-05-07T17:29:53.975Z,19.87
2023-05-07T17:33:03.809Z,19.84
2023-05-07T17:36:12.034Z,19.78
2023-05-07T17:39:14.764Z,19.63
2023-05-07T17:42:18.891Z,19.52
2023-05-07T17:45:21.857Z,19.40
2023-05-07T17:48:25.676Z,19.23
2023-05-07T17:51:36.094Z,19.13
2023-05-07T17:54:45.202Z,18.95
2023-05-07T17:57:49.214Z,18.75
2023-05-07T18:00:51.794Z,18.70
2023-05-07T18:03:54.600Z,18.54
2023-05-07T18:06:58.199Z,18.37
2023-05-07T18:10:00.786Z,18.24
2023-05-07T18:13:05.188Z,18.20
2023-05-07T18:16:08.181Z,18.21
2023-05-07T18:19:11.683Z,18.18
2023-05-07T18:22:14.200Z,18.09
2023-05-07T18:25:17.440Z,18.01
2023-05-07T18:28:21.485Z,17.98
2023-05-07T18:31:24.027Z,17.92
2023-05-07T18:34:26.977Z,17.86
2023-05-07T18:37:29.883Z,17.76
2023-05-07T18:40:32.535Z,17.63
2023-05-07T18:43:36.701Z,17.57
2023-05-07T18:46:39.451Z,17.51
2023-05-07T18:49:42.042Z,17.45
2023-05-07T18:52:44.661Z,17.43
2023-05-07T18:55:50.754Z,17.33
2023-05-07T18:58:55.122Z,17.30
2023-05-07T19:01:57.677Z,17.09
2023-05-07T19:05:00.330Z,17.05
2023-05-07T19:08:02.859Z,16.94
2023-05-07T19:11:05.463Z,16.88
2023-05-07T19:14:11.006Z,16.81
2023-05-07T19:17:15.933Z,16.77
2023-05-07T19:20:18.587Z,16.79
2023-05-07T19:23:21.122Z,16.85
2023-05-07T19:26:24.137Z,16.88
2023-05-07T19:29:28.059Z,16.90
2023-05-07T19:32:30.786Z,16.93
2023-05-07T19:35:35.506Z,16.94
2023-05-07T19:38:38.638Z,16.90
2023-05-07T19:41:42.908Z,16.85
2023-05-07T19:44:46.929Z,16.89
2023-05-07T19:47:49.945Z,16.93
2023-05-07T19:50:52.670Z,16.99
2023-05-07T19:53:57.921Z,16.96
2023-05-07T19:57:00.905Z,16.91
2023-05-07T20:00:06.668Z,16.92
2023-05-07T20:03:10.616Z,16.91
2023-05-07T20:06:13.357Z,16.99
2023-05-07T20:09:15.852Z,17.03
2023-05-07T20:12:18.874Z,17.01
2023-05-07T20:15:23.390Z,17.00
2023-05-07T20:18:26.609Z,17.00
2023-05-07T20:21:29.416Z,17.02
2023-05-07T20:24:32.332Z,17.00
2023-05-07T20:27:35.343Z,16.96
2023-05-07T20:30:39.290Z,16.99
2023-05-07T20:33:41.839Z,16.94
2023-05-07T20:36:45.879Z,16.93
2023-05-07T20:39:49.125Z,16.93
2023-05-07T20:42:52.804Z,16.94
2023-05-07T20:46:01.489Z,16.97
2023-05-07T20:49:04.608Z,16.92
2023-05-07T20:52:07.252Z,16.87
2023-05-07T20:55:10.360Z,16.78
2023-05-07T20:58:13.212Z,16.86
2023-05-07T21:01:17.265Z,16.89
2023-05-07T21:04:19.840Z,16.92
2023-05-07T21:07:22.582Z,16.93
2023-05-07T21:10:25.218Z,16.84
2023-05-07T21:13:27.958Z,16.88
2023-05-07T21:16:32.046Z,16.92
2023-05-07T21:19:35.090Z,16.92
2023-05-07T21:22:37.640Z,16.84
2023-05-07T21:25:41.306Z,16.74
2023-05-07T21:28:44.127Z,16.61
2023-05-07T21:31:48.087Z,16.59
2023-05-07T21:34:50.649Z,16.63
2023-05-07T21:37:53.353Z,16.65
2023-05-07T21:40:55.969Z,16.73
2023-05-07T21:43:58.571Z,16.75
2023-05-07T21:47:02.463Z,16.83
2023-05-07T21:50:05.548Z,16.82
2023-05-07T21:53:08.077Z,16.85
2023-05-07T21:56:10.530Z,16.86
2023-05-07T21:59:13.122Z,16.72
2023-05-07T22:02:17.151Z,16.80
2023-05-07T22:05:19.911Z,16.82
2023-05-07T22:08:22.540Z,16.73
2023-05-07T22:11:25.147Z,16.72
2023-05-07T22:14:27.751Z,16.78
2023-05-07T22:17:31.741Z,16.84
2023-05-07T22:20:34.531Z,16.89
2023-05-07T22:23:37.158Z,16.91
2023-05-07T22:26:39.812Z,16.89
2023-05-07T22:29:42.401Z,16.88
2023-05-07T22:32:46.730Z,16.91
2023-05-07T22:35:49.340Z,16.86
2023-05-07T22:38:51.898Z,16.86
2023-05-07T22:41:54.582Z,16.87
2023-05-07T22:44:57.379Z,16.89
2023-05-07T22:48:01.237Z,16.91
2023-05-07T22:51:04.039Z,16.92
2023-05-07T22:54:08.264Z,16.89
2023-05-07T22:57:10.784Z,16.89
2023-05-07T23:00:14.554Z,16.90
2023-05-07T23:03:18.787Z,16.94
2023-05-07T23:06:21.712Z,16.96
2023-05-07T23:09:24.342Z,16.96
2023-05-07T23:12:26.952Z,16.93
2023-05-07T23:15:29.612Z,16.92
2023-05-07T23:18:33.612Z,16.87
2023-05-07T23:21:36.221Z,16.82
2023-05-07T23:24:38.762Z,16.78
2023-05-07T23:27:41.396Z,16.76
2023-05-07T23:30:43.905Z,16.76
2023-05-07T23:33:47.878Z,16.78
2023-05-07T23:36:50.513Z,16.78
2023-05-07T23:39:56.060Z,16.80
2023-05-07T23:42:58.799Z,16.84
2023-05-07T23:46:02.492Z,16.84
2023-05-07T23:49:06.395Z,16.82
2023-05-07T23:52:08.966Z,16.79
2023-05-07T23:55:11.495Z,16.81
2023-05-07T23:58:14.332Z,16.81
